Belton, South Carolina
Current Conditions -  °F | °C
As of 7:01 PM on Sunday 23 Nov 2014 (Local Time) from KAND Reporting Station
Light Rain Light Rain  
Wind Chill: 50°   Ceiling: 1700
Heat Index: 50°   Visibility: 7mi
Dew Point: 49°   Wind: 0mph
Humidity: 96%   Direction: NA
Pressure: 29.79"   Gusts: NA
Location:  34.52°N, 82.49°W
Report Text: KAND 240001Z AUTO 00000KT 7SM -RA SCT005 BKN017 OVC090 10/09 A2979 RMK AO2 P0000 T01000094
Loading
Personal Weather Stations






























Interactive Weather Map New forecast layout! Learn more

10-Day Weather Forecast

Advertisements
Track Severe Weather on mobile